Time,TemperatureF,DewpointF,PressureIn,WindDirection,WindDirectionDegrees,WindSpeedMPH,WindSpeedGustMPH,Humidity,HourlyPrecipIn,Conditions,Clouds,dailyrainin,SoftwareType,DateUTC
2013-07-06 00:12:00,64.0,50.0,29.92,West,260,3.0,-999.0,59,-99.99,,,-99.99,,2013-07-06 07:12:00,
2013-07-06 00:22:00,64.0,50.0,29.92,West,260,3.0,-999.0,59,-99.99,,,-99.99,,2013-07-06 07:22:00,
2013-07-06 00:33:00,64.0,50.0,29.92,West,260,3.0,-999.0,59,-99.99,,,-99.99,,2013-07-06 07:33:00,
2013-07-06 00:52:00,63.0,50.0,29.92,North,0,0.0,-999.0,63,-99.99,,,-99.99,,2013-07-06 07:52:00,
2013-07-06 01:21:00,61.0,52.0,29.92,North,0,0.0,-999.0,72,-99.99,,,-99.99,,2013-07-06 08:21:00,
2013-07-06 01:33:00,61.0,52.0,29.92,North,0,0.0,-999.0,72,-99.99,,,-99.99,,2013-07-06 08:33:00,
2013-07-06 01:54:00,59.0,52.0,29.92,WNW,290,5.0,-999.0,77,-99.99,,,-99.99,,2013-07-06 08:54:00,
2013-07-06 02:22:00,59.0,52.0,29.92,WNW,290,5.0,-999.0,77,-99.99,,,-99.99,,2013-07-06 09:22:00,
2013-07-06 02:33:00,59.0,52.0,29.92,WNW,290,5.0,-999.0,77,-99.99,,,-99.99,,2013-07-06 09:33:00,
2013-07-06 02:52:00,59.0,52.0,29.92,NW,320,7.0,-999.0,77,-99.99,,,-99.99,,2013-07-06 09:52:00,
2013-07-06 03:11:00,57.0,52.0,29.92,WNW,300,6.0,-999.0,82,-99.99,,,-99.99,,2013-07-06 10:11:00,
2013-07-06 03:22:00,57.0,52.0,29.92,WNW,300,6.0,-999.0,82,-99.99,,,-99.99,,2013-07-06 10:22:00,
2013-07-06 03:33:00,57.0,52.0,29.92,WNW,300,6.0,-999.0,82,-99.99,,,-99.99,,2013-07-06 10:33:00,
2013-07-06 03:53:00,57.0,52.0,29.92,WNW,290,8.0,-999.0,82,-99.99,,,-99.99,,2013-07-06 10:53:00,
2013-07-06 04:11:00,57.0,52.0,29.92,WNW,300,10.0,18.0,82,-99.99,,,-99.99,,2013-07-06 11:11:00,
2013-07-06 04:22:00,57.0,52.0,29.92,WNW,300,10.0,18.0,82,-99.99,,,-99.99,,2013-07-06 11:22:00,
2013-07-06 04:33:00,57.0,52.0,29.92,WNW,300,10.0,18.0,82,-99.99,,,-99.99,,2013-07-06 11:33:00,
2013-07-06 04:52:00,57.0,52.0,29.92,North,0,0.0,-999.0,82,-99.99,,,-99.99,,2013-07-06 11:52:00,
2013-07-06 05:22:00,54.0,50.0,29.92,North,0,0.0,-999.0,87,-99.99,,,-99.99,,2013-07-06 12:22:00,
2013-07-06 05:33:00,54.0,50.0,29.92,North,0,0.0,-999.0,87,-99.99,,,-99.99,,2013-07-06 12:33:00,
2013-07-06 05:52:00,52.0,48.0,29.93,North,0,0.0,-999.0,87,-99.99,,,-99.99,,2013-07-06 12:52:00,
2013-07-06 06:01:00,52.0,48.0,29.93,North,0,0.0,-999.0,87,-99.99,,,-99.99,,2013-07-06 13:01:00,
2013-07-06 06:11:00,52.0,48.0,29.93,North,0,0.0,-999.0,87,-99.99,,,-99.99,,2013-07-06 13:11:00,
2013-07-06 06:22:00,52.0,48.0,29.93,SSW,200,3.0,-999.0,87,-99.99,,,-99.99,,2013-07-06 13:22:00,
2013-07-06 06:33:00,52.0,48.0,29.93,SSW,200,3.0,-999.0,87,-99.99,,,-99.99,,2013-07-06 13:33:00,
2013-07-06 06:52:00,52.0,48.0,29.93,South,190,5.0,-999.0,87,-99.99,,,-99.99,,2013-07-06 13:52:00,
2013-07-06 07:42:00,57.0,50.0,29.94,North,0,0.0,-999.0,76,-99.99,,,-99.99,,2013-07-06 14:42:00,
2013-07-06 07:53:00,57.0,50.0,29.94,North,0,0.0,-999.0,76,-99.99,,,-99.99,,2013-07-06 14:53:00,
2013-07-06 08:02:00,57.0,50.0,29.94,North,0,0.0,-999.0,76,-99.99,,,-99.99,,2013-07-06 15:02:00,
2013-07-06 08:22:00,59.0,52.0,29.94,South,190,5.0,-999.0,77,-99.99,,,-99.99,,2013-07-06 15:22:00,
2013-07-06 08:33:00,59.0,52.0,29.94,South,190,5.0,-999.0,77,-99.99,,,-99.99,,2013-07-06 15:33:00,
2013-07-06 08:52:00,61.0,52.0,29.94,North,0,0.0,-999.0,72,-99.99,,,-99.99,,2013-07-06 15:52:00,
2013-07-06 09:14:00,63.0,52.0,29.94,NNW,330,8.0,-999.0,67,-99.99,,,-99.99,,2013-07-06 16:14:00,
2013-07-06 09:23:00,63.0,52.0,29.94,NNW,330,8.0,-999.0,67,-99.99,,,-99.99,,2013-07-06 16:23:00,
2013-07-06 10:15:00,66.0,52.0,29.93,WNW,300,6.0,-999.0,59,-99.99,,,-99.99,,2013-07-06 17:15:00,
2013-07-06 10:38:00,66.0,52.0,29.93,WNW,300,6.0,-999.0,59,-99.99,,,-99.99,,2013-07-06 17:38:00,
2013-07-06 10:57:00,68.0,52.0,29.92,NW,320,8.0,-999.0,56,-99.99,,,-99.99,,2013-07-06 17:57:00,
2013-07-06 11:28:00,70.0,52.0,29.91,NNW,330,9.0,-999.0,52,-99.99,,,-99.99,,2013-07-06 18:28:00,
2013-07-06 11:38:00,70.0,52.0,29.91,NNW,330,9.0,-999.0,52,-99.99,,,-99.99,,2013-07-06 18:38:00,
2013-07-06 11:57:00,70.0,52.0,29.91,NNW,340,3.0,-999.0,52,-99.99,,,-99.99,,2013-07-06 18:57:00,
2013-07-06 12:54:00,73.0,52.0,29.89,North,0,0.0,-999.0,46,-99.99,,,-99.99,,2013-07-06 19:54:00,
2013-07-06 13:18:00,75.0,52.0,29.88,NNW,340,5.0,-999.0,44,-99.99,,,-99.99,,2013-07-06 20:18:00,
2013-07-06 13:27:00,75.0,52.0,29.88,NNW,340,5.0,-999.0,44,-99.99,,,-99.99,,2013-07-06 20:27:00,
2013-07-06 14:27:00,79.0,52.0,29.86,NNW,340,7.0,-999.0,39,-99.99,,,-99.99,,2013-07-06 21:27:00,
2013-07-06 15:27:00,81.0,50.0,29.84,NNW,330,8.0,-999.0,34,-99.99,,,-99.99,,2013-07-06 22:27:00,
2013-07-06 15:37:00,81.0,50.0,29.84,NNW,330,8.0,-999.0,34,-99.99,,,-99.99,,2013-07-06 22:37:00,
2013-07-06 15:39:00,82.0,50.0,29.82,NW,310,8.0,-999.0,32,-99.99,,,-99.99,,2013-07-06 22:39:00,
2013-07-06 16:18:00,82.0,50.0,29.82,NW,310,8.0,-999.0,32,-99.99,,,-99.99,,2013-07-06 23:18:00,
2013-07-06 16:27:00,82.0,50.0,29.82,NW,310,8.0,-999.0,32,-99.99,,,-99.99,,2013-07-06 23:27:00,
2013-07-06 17:16:00,81.0,52.0,29.81,WNW,300,10.0,-999.0,36,-99.99,,,-99.99,,2013-07-07 00:16:00,
2013-07-06 17:26:00,81.0,52.0,29.81,WNW,300,10.0,-999.0,36,-99.99,,,-99.99,,2013-07-07 00:26:00,
2013-07-06 17:37:00,81.0,52.0,29.81,WNW,300,10.0,-999.0,36,-99.99,,,-99.99,,2013-07-07 00:37:00,
2013-07-06 17:56:00,79.0,54.0,29.81,WNW,300,9.0,20.0,41,-99.99,,,-99.99,,2013-07-07 00:56:00,
2013-07-06 18:26:00,77.0,55.0,29.80,WNW,290,12.0,22.0,47,-99.99,,,-99.99,,2013-07-07 01:26:00,
2013-07-06 19:05:00,77.0,55.0,29.79,WNW,300,9.0,17.0,47,-99.99,,,-99.99,,2013-07-07 02:05:00,
2013-07-06 19:14:00,77.0,55.0,29.79,WNW,300,12.0,18.0,47,-99.99,,,-99.99,,2013-07-07 02:14:00,
2013-07-06 19:34:00,77.0,55.0,29.79,WNW,300,12.0,18.0,47,-99.99,,,-99.99,,2013-07-07 02:34:00,
2013-07-06 19:54:00,77.0,55.0,29.79,WNW,300,12.0,18.0,47,-99.99,,,-99.99,,2013-07-07 02:54:00,
2013-07-06 20:25:00,73.0,55.0,29.80,WNW,290,7.0,-999.0,53,-99.99,,,-99.99,,2013-07-07 03:25:00,
2013-07-06 20:34:00,73.0,55.0,29.80,WNW,290,7.0,-999.0,53,-99.99,,,-99.99,,2013-07-07 03:34:00,
2013-07-06 21:11:00,72.0,55.0,29.81,SW,220,5.0,-999.0,56,-99.99,,,-99.99,,2013-07-07 04:11:00,
2013-07-06 21:21:00,72.0,55.0,29.81,SW,220,5.0,-999.0,56,-99.99,,,-99.99,,2013-07-07 04:21:00,
2013-07-06 21:31:00,72.0,55.0,29.81,SW,220,5.0,-999.0,56,-99.99,,,-99.99,,2013-07-07 04:31:00,
2013-07-06 21:51:00,72.0,55.0,29.82,WNW,290,5.0,-999.0,56,-99.99,,,-99.99,,2013-07-07 04:51:00,
2013-07-06 22:11:00,70.0,55.0,29.84,North,0,0.0,-999.0,60,-99.99,,,-99.99,,2013-07-07 05:11:00,
2013-07-06 22:21:00,70.0,55.0,29.84,North,0,0.0,-999.0,60,-99.99,,,-99.99,,2013-07-07 05:21:00,
2013-07-06 22:31:00,70.0,55.0,29.84,North,0,0.0,-999.0,60,-99.99,,,-99.99,,2013-07-07 05:31:00,
2013-07-06 22:51:00,70.0,55.0,29.84,North,0,0.0,-999.0,60,-99.99,,,-99.99,,2013-07-07 05:51:00,
2013-07-06 23:11:00,64.0,55.0,29.85,North,0,0.0,-999.0,72,-99.99,,,-99.99,,2013-07-07 06:11:00,
2013-07-06 23:21:00,64.0,55.0,29.85,North,0,0.0,-999.0,72,-99.99,,,-99.99,,2013-07-07 06:21:00,
2013-07-06 23:32:00,64.0,55.0,29.85,North,0,0.0,-999.0,72,-99.99,,,-99.99,,2013-07-07 06:32:00,
2013-07-06 23:52:00,64.0,55.0,29.86,North,0,0.0,-999.0,72,-99.99,,,-99.99,,2013-07-07 06:52:00,